sensor_id;sensor_type;location;lat;lon;timestamp;pressure;altitude;pressure_sealevel;temperature;humidity
72414;BME280;60995;52.154;4.498;2023-03-22T00:01:18;100806.31;;;10.42;77.40
72414;BME280;60995;52.154;4.498;2023-03-22T00:03:37;100803.06;;;10.49;77.24
72414;BME280;60995;52.154;4.498;2023-03-22T00:05:56;100800.22;;;10.50;77.43
72414;BME280;60995;52.154;4.498;2023-03-22T00:08:13;100797.78;;;10.57;77.11
72414;BME280;60995;52.154;4.498;2023-03-22T00:10:30;100801.53;;;10.56;76.97
72414;BME280;60995;52.154;4.498;2023-03-22T00:12:46;100802.13;;;10.69;76.59
72414;BME280;60995;52.154;4.498;2023-03-22T00:15:03;100795.38;;;10.64;76.87
72414;BME280;60995;52.154;4.498;2023-03-22T00:17:20;100791.09;;;10.61;76.90
72414;BME280;60995;52.154;4.498;2023-03-22T00:19:37;100794.28;;;10.76;76.44
72414;BME280;60995;52.154;4.498;2023-03-22T00:21:57;100789.84;;;10.75;76.91
72414;BME280;60995;52.154;4.498;2023-03-22T00:24:15;100787.28;;;10.83;76.52
72414;BME280;60995;52.154;4.498;2023-03-22T00:26:32;100776.56;;;10.82;76.28
72414;BME280;60995;52.154;4.498;2023-03-22T00:28:48;100774.84;;;10.81;76.42
72414;BME280;60995;52.154;4.498;2023-03-22T00:31:05;100783.28;;;10.78;76.54
72414;BME280;60995;52.154;4.498;2023-03-22T00:33:22;100774.13;;;10.69;76.86
72414;BME280;60995;52.154;4.498;2023-03-22T00:35:39;100769.56;;;10.69;76.88
72414;BME280;60995;52.154;4.498;2023-03-22T00:37:55;100768.69;;;10.69;77.16
72414;BME280;60995;52.154;4.498;2023-03-22T00:40:12;100763.28;;;10.79;76.85
72414;BME280;60995;52.154;4.498;2023-03-22T00:42:29;100765.56;;;10.73;76.77
72414;BME280;60995;52.154;4.498;2023-03-22T00:44:46;100771.44;;;10.79;76.71
72414;BME280;60995;52.154;4.498;2023-03-22T00:47:02;100759.84;;;10.76;76.68
72414;BME280;60995;52.154;4.498;2023-03-22T00:49:21;100752.13;;;10.82;76.29
72414;BME280;60995;52.154;4.498;2023-03-22T00:51:37;100752.88;;;10.84;76.37
72414;BME280;60995;52.154;4.498;2023-03-22T00:53:54;100748.56;;;10.91;76.31
72414;BME280;60995;52.154;4.498;2023-03-22T00:56:11;100736.72;;;10.92;75.77
72414;BME280;60995;52.154;4.498;2023-03-22T00:58:30;100731.88;;;10.96;75.54
72414;BME280;60995;52.154;4.498;2023-03-22T01:00:47;100731.59;;;11.08;75.67
72414;BME280;60995;52.154;4.498;2023-03-22T01:03:04;100732.28;;;10.91;75.81
72414;BME280;60995;52.154;4.498;2023-03-22T01:05:22;100734.13;;;10.81;75.89
72414;BME280;60995;52.154;4.498;2023-03-22T01:07:39;100727.88;;;10.90;76.18
72414;BME280;60995;52.154;4.498;2023-03-22T01:09:56;100725.16;;;10.90;75.76
72414;BME280;60995;52.154;4.498;2023-03-22T01:12:13;100726.72;;;10.73;75.74
72414;BME280;60995;52.154;4.498;2023-03-22T01:14:30;100723.56;;;10.78;75.87
72414;BME280;60995;52.154;4.498;2023-03-22T01:16:46;100707.28;;;10.58;76.73
72414;BME280;60995;52.154;4.498;2023-03-22T01:19:03;100710.41;;;10.63;76.31
72414;BME280;60995;52.154;4.498;2023-03-22T01:21:19;100701.84;;;10.58;76.59
72414;BME280;60995;52.154;4.498;2023-03-22T01:23:37;100702.97;;;10.55;76.53
72414;BME280;60995;52.154;4.498;2023-03-22T01:25:53;100689.25;;;10.37;76.82
72414;BME280;60995;52.154;4.498;2023-03-22T01:28:09;100681.84;;;10.39;77.19
72414;BME280;60995;52.154;4.498;2023-03-22T01:30:26;100685.88;;;10.55;76.65
72414;BME280;60995;52.154;4.498;2023-03-22T01:32:42;100681.97;;;10.48;76.98
72414;BME280;60995;52.154;4.498;2023-03-22T01:34:58;100683.28;;;10.43;77.09
72414;BME280;60995;52.154;4.498;2023-03-22T01:37:15;100681.28;;;10.46;76.98
72414;BME280;60995;52.154;4.498;2023-03-22T01:39:31;100665.28;;;10.52;76.27
72414;BME280;60995;52.154;4.498;2023-03-22T01:41:48;100665.88;;;10.66;76.64
72414;BME280;60995;52.154;4.498;2023-03-22T01:44:16;100648.72;;;10.46;76.19
72414;BME280;60995;52.154;4.498;2023-03-22T01:46:34;100642.44;;;10.55;76.00
72414;BME280;60995;52.154;4.498;2023-03-22T01:48:51;100644.44;;;10.53;76.14
72414;BME280;60995;52.154;4.498;2023-03-22T01:51:13;100633.03;;;10.59;75.65
72414;BME280;60995;52.154;4.498;2023-03-22T01:53:41;100638.75;;;10.56;75.39
72414;BME280;60995;52.154;4.498;2023-03-22T01:56:01;100643.03;;;10.78;74.93
72414;BME280;60995;52.154;4.498;2023-03-22T01:58:18;100631.03;;;10.51;75.71
72414;BME280;60995;52.154;4.498;2023-03-22T02:00:35;100641.47;;;10.75;74.64
72414;BME280;60995;52.154;4.498;2023-03-22T02:02:51;100638.31;;;10.90;74.08
72414;BME280;60995;52.154;4.498;2023-03-22T02:05:08;100636.72;;;10.78;74.51
72414;BME280;60995;52.154;4.498;2023-03-22T02:07:25;100634.75;;;10.80;74.23
72414;BME280;60995;52.154;4.498;2023-03-22T02:09:42;100629.88;;;10.73;75.42
72414;BME280;60995;52.154;4.498;2023-03-22T02:40:09;100592.16;;;10.90;76.51
72414;BME280;60995;52.154;4.498;2023-03-22T02:42:39;100595.88;;;10.89;76.47
72414;BME280;60995;52.154;4.498;2023-03-22T02:45:52;100583.41;;;10.96;76.46
72414;BME280;60995;52.154;4.498;2023-03-22T02:48:25;100574.56;;;10.94;77.12
72414;BME280;60995;52.154;4.498;2023-03-22T02:50:51;100571.13;;;10.92;76.90
72414;BME280;60995;52.154;4.498;2023-03-22T02:53:24;100568.41;;;10.92;77.46
72414;BME280;60995;52.154;4.498;2023-03-22T02:58:51;100563.81;;;11.02;77.08
72414;BME280;60995;52.154;4.498;2023-03-22T03:01:10;100561.81;;;11.04;76.76
72414;BME280;60995;52.154;4.498;2023-03-22T03:03:35;100561.28;;;10.91;77.27
72414;BME280;60995;52.154;4.498;2023-03-22T03:05:57;100567.13;;;10.96;77.00
72414;BME280;60995;52.154;4.498;2023-03-22T03:08:19;100559.81;;;11.06;76.81
72414;BME280;60995;52.154;4.498;2023-03-22T03:10:39;100559.38;;;11.01;76.63
72414;BME280;60995;52.154;4.498;2023-03-22T03:12:56;100563.13;;;11.00;77.13
72414;BME280;60995;52.154;4.498;2023-03-22T03:15:19;100566.44;;;10.94;76.94
72414;BME280;60995;52.154;4.498;2023-03-22T03:25:38;100543.50;;;11.06;76.60
72414;BME280;60995;52.154;4.498;2023-03-22T03:28:10;100549.25;;;11.03;76.82
72414;BME280;60995;52.154;4.498;2023-03-22T03:30:59;100544.22;;;11.08;76.89
72414;BME280;60995;52.154;4.498;2023-03-22T03:33:24;100546.94;;;11.08;76.58
72414;BME280;60995;52.154;4.498;2023-03-22T03:35:58;100541.84;;;10.96;77.21
72414;BME280;60995;52.154;4.498;2023-03-22T03:38:24;100541.66;;;11.07;76.64
72414;BME280;60995;52.154;4.498;2023-03-22T03:40:49;100546.53;;;11.03;77.14
72414;BME280;60995;52.154;4.498;2023-03-22T03:43:10;100531.81;;;10.96;77.41
72414;BME280;60995;52.154;4.498;2023-03-22T03:45:31;100540.13;;;10.95;77.33
72414;BME280;60995;52.154;4.498;2023-03-22T03:47:52;100537.56;;;10.93;77.39
72414;BME280;60995;52.154;4.498;2023-03-22T03:50:14;100544.38;;;11.07;77.12
72414;BME280;60995;52.154;4.498;2023-03-22T03:52:31;100544.97;;;11.01;77.48
72414;BME280;60995;52.154;4.498;2023-03-22T03:54:47;100538.88;;;10.89;77.85
72414;BME280;60995;52.154;4.498;2023-03-22T03:57:04;100529.25;;;11.04;77.20
72414;BME280;60995;52.154;4.498;2023-03-22T03:59:20;100536.94;;;11.09;77.38
72414;BME280;60995;52.154;4.498;2023-03-22T04:01:37;100535.78;;;11.12;77.15
72414;BME280;60995;52.154;4.498;2023-03-22T04:03:54;100534.63;;;11.14;76.75
72414;BME280;60995;52.154;4.498;2023-03-22T04:06:11;100526.81;;;11.01;77.84
72414;BME280;60995;52.154;4.498;2023-03-22T04:08:27;100524.34;;;11.18;77.31
72414;BME280;60995;52.154;4.498;2023-03-22T04:10:48;100525.22;;;11.08;77.62
72414;BME280;60995;52.154;4.498;2023-03-22T04:13:06;100521.63;;;11.18;77.47
72414;BME280;60995;52.154;4.498;2023-03-22T04:15:22;100516.09;;;11.09;77.60
72414;BME280;60995;52.154;4.498;2023-03-22T04:17:40;100513.22;;;11.01;77.89
72414;BME280;60995;52.154;4.498;2023-03-22T04:19:56;100525.13;;;11.00;78.30
72414;BME280;60995;52.154;4.498;2023-03-22T04:22:13;100518.09;;;11.07;78.16
72414;BME280;60995;52.154;4.498;2023-03-22T04:24:29;100518.38;;;11.04;78.11
72414;BME280;60995;52.154;4.498;2023-03-22T04:26:46;100518.19;;;11.16;78.14
72414;BME280;60995;52.154;4.498;2023-03-22T04:29:02;100523.50;;;11.07;78.20
72414;BME280;60995;52.154;4.498;2023-03-22T04:31:20;100512.91;;;11.14;77.56
72414;BME280;60995;52.154;4.498;2023-03-22T04:33:36;100511.75;;;11.17;77.47
72414;BME280;60995;52.154;4.498;2023-03-22T04:35:54;100502.63;;;11.08;78.09
72414;BME280;60995;52.154;4.498;2023-03-22T04:38:12;100507.19;;;11.17;77.63
72414;BME280;60995;52.154;4.498;2023-03-22T04:40:28;100508.19;;;11.16;78.03
72414;BME280;60995;52.154;4.498;2023-03-22T04:42:50;100494.31;;;11.19;77.32
72414;BME280;60995;52.154;4.498;2023-03-22T04:45:07;100493.47;;;11.19;77.49
72414;BME280;60995;52.154;4.498;2023-03-22T04:47:24;100496.66;;;11.04;77.46
72414;BME280;60995;52.154;4.498;2023-03-22T04:49:40;100494.06;;;11.13;77.46
72414;BME280;60995;52.154;4.498;2023-03-22T04:51:57;100486.00;;;11.21;77.20
72414;BME280;60995;52.154;4.498;2023-03-22T04:54:13;100488.31;;;11.16;76.80
72414;BME280;60995;52.154;4.498;2023-03-22T04:56:29;100487.81;;;11.30;76.13
72414;BME280;60995;52.154;4.498;2023-03-22T04:58:46;100486.72;;;11.23;76.37
72414;BME280;60995;52.154;4.498;2023-03-22T05:01:03;100483.69;;;11.26;76.26
72414;BME280;60995;52.154;4.498;2023-03-22T05:03:20;100488.03;;;11.19;76.30
72414;BME280;60995;52.154;4.498;2023-03-22T05:05:37;100477.41;;;11.25;76.31
72414;BME280;60995;52.154;4.498;2023-03-22T05:07:54;100481.72;;;11.18;76.26
72414;BME280;60995;52.154;4.498;2023-03-22T05:10:11;100469.31;;;11.16;76.43
72414;BME280;60995;52.154;4.498;2023-03-22T05:12:27;100482.63;;;11.09;76.51
72414;BME280;60995;52.154;4.498;2023-03-22T05:14:43;100477.16;;;11.19;76.10
72414;BME280;60995;52.154;4.498;2023-03-22T05:17:00;100475.38;;;11.28;75.71
72414;BME280;60995;52.154;4.498;2023-03-22T05:19:16;100474.94;;;11.04;76.27
72414;BME280;60995;52.154;4.498;2023-03-22T05:21:37;100470.44;;;11.23;75.55
72414;BME280;60995;52.154;4.498;2023-03-22T05:23:57;100476.84;;;11.22;75.47
72414;BME280;60995;52.154;4.498;2023-03-22T05:26:15;100478.47;;;11.15;75.50
72414;BME280;60995;52.154;4.498;2023-03-22T05:28:31;100467.00;;;11.21;75.28
72414;BME280;60995;52.154;4.498;2023-03-22T05:30:48;100471.59;;;11.20;74.98
72414;BME280;60995;52.154;4.498;2023-03-22T05:33:04;100462.38;;;11.03;75.46
72414;BME280;60995;52.154;4.498;2023-03-22T05:35:21;100460.06;;;11.08;75.33
72414;BME280;60995;52.154;4.498;2023-03-22T05:37:37;100457.63;;;11.05;75.00
72414;BME280;60995;52.154;4.498;2023-03-22T05:39:53;100447.97;;;10.93;75.32
72414;BME280;60995;52.154;4.498;2023-03-22T05:42:10;100448.28;;;11.18;74.98
72414;BME280;60995;52.154;4.498;2023-03-22T05:44:26;100447.72;;;11.14;74.67
72414;BME280;60995;52.154;4.498;2023-03-22T05:46:42;100443.47;;;11.12;74.51
72414;BME280;60995;52.154;4.498;2023-03-22T05:48:59;100451.09;;;11.26;73.96
72414;BME280;60995;52.154;4.498;2023-03-22T05:51:16;100451.00;;;11.18;74.24
72414;BME280;60995;52.154;4.498;2023-03-22T05:53:34;100445.44;;;11.19;74.05
72414;BME280;60995;52.154;4.498;2023-03-22T05:55:52;100458.09;;;11.29;73.68
72414;BME280;60995;52.154;4.498;2023-03-22T05:58:09;100446.19;;;11.12;74.02
72414;BME280;60995;52.154;4.498;2023-03-22T06:00:26;100446.56;;;11.17;74.19
72414;BME280;60995;52.154;4.498;2023-03-22T06:02:47;100445.50;;;11.09;73.76
72414;BME280;60995;52.154;4.498;2023-03-22T06:05:07;100446.97;;;11.22;73.36
72414;BME280;60995;52.154;4.498;2023-03-22T06:07:26;100441.88;;;11.19;73.03
72414;BME280;60995;52.154;4.498;2023-03-22T06:09:43;100443.16;;;11.42;72.70
72414;BME280;60995;52.154;4.498;2023-03-22T06:12:02;100439.50;;;11.52;72.12
72414;BME280;60995;52.154;4.498;2023-03-22T06:14:19;100429.56;;;11.42;72.16
72414;BME280;60995;52.154;4.498;2023-03-22T06:16:36;100439.81;;;11.49;71.94
72414;BME280;60995;52.154;4.498;2023-03-22T06:18:53;100449.66;;;11.50;72.04
72414;BME280;60995;52.154;4.498;2023-03-22T06:21:09;100445.53;;;11.46;72.17
72414;BME280;60995;52.154;4.498;2023-03-22T06:23:26;100449.78;;;11.58;71.86
72414;BME280;60995;52.154;4.498;2023-03-22T06:25:43;100447.13;;;11.66;71.65
72414;BME280;60995;52.154;4.498;2023-03-22T06:28:00;100450.31;;;11.62;71.68
72414;BME280;60995;52.154;4.498;2023-03-22T06:30:17;100443.16;;;11.42;72.46
72414;BME280;60995;52.154;4.498;2023-03-22T06:32:34;100443.88;;;11.45;72.10
72414;BME280;60995;52.154;4.498;2023-03-22T06:34:50;100445.50;;;11.55;72.24
72414;BME280;60995;52.154;4.498;2023-03-22T06:37:07;100448.91;;;11.57;72.02
72414;BME280;60995;52.154;4.498;2023-03-22T06:39:24;100450.06;;;11.55;72.38
72414;BME280;60995;52.154;4.498;2023-03-22T06:41:40;100440.34;;;11.52;72.81
72414;BME280;60995;52.154;4.498;2023-03-22T06:43:57;100436.34;;;11.56;72.62
72414;BME280;60995;52.154;4.498;2023-03-22T06:46:13;100433.75;;;11.55;72.23
72414;BME280;60995;52.154;4.498;2023-03-22T06:48:30;100453.03;;;11.80;71.67
72414;BME280;60995;52.154;4.498;2023-03-22T06:50:46;100446.44;;;11.82;71.54
72414;BME280;60995;52.154;4.498;2023-03-22T06:53:02;100445.59;;;11.82;71.40
72414;BME280;60995;52.154;4.498;2023-03-22T06:55:19;100441.84;;;11.83;71.15
72414;BME280;60995;52.154;4.498;2023-03-22T06:57:35;100431.91;;;12.10;70.48
72414;BME280;60995;52.154;4.498;2023-03-22T06:59:52;100433.16;;;12.15;69.92
72414;BME280;60995;52.154;4.498;2023-03-22T07:02:11;100429.13;;;12.19;70.11
72414;BME280;60995;52.154;4.498;2023-03-22T07:04:28;100434.25;;;12.04;70.33
72414;BME280;60995;52.154;4.498;2023-03-22T07:06:44;100433.19;;;11.97;70.72
72414;BME280;60995;52.154;4.498;2023-03-22T07:09:00;100433.88;;;11.99;70.77
72414;BME280;60995;52.154;4.498;2023-03-22T07:11:17;100434.00;;;11.80;71.25
72414;BME280;60995;52.154;4.498;2023-03-22T07:13:34;100420.88;;;11.93;71.52
72414;BME280;60995;52.154;4.498;2023-03-22T07:15:57;100439.22;;;11.91;71.13
72414;BME280;60995;52.154;4.498;2023-03-22T07:18:15;100427.94;;;11.86;71.88
72414;BME280;60995;52.154;4.498;2023-03-22T07:20:31;100437.75;;;11.79;71.63
72414;BME280;60995;52.154;4.498;2023-03-22T07:22:51;100437.44;;;11.82;71.32
72414;BME280;60995;52.154;4.498;2023-03-22T07:25:08;100442.63;;;11.93;71.41
72414;BME280;60995;52.154;4.498;2023-03-22T07:27:25;100416.44;;;11.92;71.06
72414;BME280;60995;52.154;4.498;2023-03-22T07:29:41;100432.00;;;11.82;71.36
72414;BME280;60995;52.154;4.498;2023-03-22T07:31:57;100436.06;;;11.96;71.38
72414;BME280;60995;52.154;4.498;2023-03-22T07:34:14;100426.38;;;11.83;71.05
72414;BME280;60995;52.154;4.498;2023-03-22T07:36:31;100434.72;;;11.82;71.62
72414;BME280;60995;52.154;4.498;2023-03-22T07:38:48;100431.81;;;11.65;72.40
72414;BME280;60995;52.154;4.498;2023-03-22T07:41:05;100434.78;;;11.72;72.44
72414;BME280;60995;52.154;4.498;2023-03-22T07:43:22;100442.09;;;11.71;72.33
72414;BME280;60995;52.154;4.498;2023-03-22T07:45:38;100443.09;;;11.70;72.94
72414;BME280;60995;52.154;4.498;2023-03-22T07:47:55;100449.91;;;11.74;73.26
72414;BME280;60995;52.154;4.498;2023-03-22T07:50:12;100438.28;;;11.64;73.30
72414;BME280;60995;52.154;4.498;2023-03-22T07:52:29;100448.66;;;11.51;73.76
72414;BME280;60995;52.154;4.498;2023-03-22T07:54:45;100444.00;;;11.61;73.91
72414;BME280;60995;52.154;4.498;2023-03-22T07:57:02;100441.22;;;11.53;74.26
72414;BME280;60995;52.154;4.498;2023-03-22T07:59:18;100439.50;;;11.52;74.74
72414;BME280;60995;52.154;4.498;2023-03-22T08:01:35;100444.88;;;11.62;74.68
72414;BME280;60995;52.154;4.498;2023-03-22T08:03:52;100437.50;;;11.54;75.13
72414;BME280;60995;52.154;4.498;2023-03-22T08:06:08;100446.09;;;11.49;75.71
72414;BME280;60995;52.154;4.498;2023-03-22T08:08:26;100438.72;;;11.41;75.77
72414;BME280;60995;52.154;4.498;2023-03-22T08:10:48;100448.66;;;11.51;75.54
72414;BME280;60995;52.154;4.498;2023-03-22T08:13:06;100449.28;;;11.45;75.90
72414;BME280;60995;52.154;4.498;2023-03-22T08:15:22;100460.81;;;11.29;76.67
72414;BME280;60995;52.154;4.498;2023-03-22T08:17:39;100439.94;;;11.29;77.50
72414;BME280;60995;52.154;4.498;2023-03-22T08:19:55;100456.94;;;11.03;78.97
72414;BME280;60995;52.154;4.498;2023-03-22T08:22:12;100455.81;;;10.96;78.98
72414;BME280;60995;52.154;4.498;2023-03-22T08:24:30;100448.47;;;10.79;79.80
72414;BME280;60995;52.154;4.498;2023-03-22T08:26:47;100448.97;;;10.92;79.91
72414;BME280;60995;52.154;4.498;2023-03-22T08:29:04;100445.34;;;10.73;80.76
72414;BME280;60995;52.154;4.498;2023-03-22T08:31:21;100439.19;;;10.81;80.97
72414;BME280;60995;52.154;4.498;2023-03-22T08:33:38;100436.13;;;10.94;81.03
72414;BME280;60995;52.154;4.498;2023-03-22T08:36:06;100432.69;;;10.92;81.02
72414;BME280;60995;52.154;4.498;2023-03-22T08:38:25;100444.31;;;10.84;81.02
72414;BME280;60995;52.154;4.498;2023-03-22T08:40:41;100438.31;;;10.81;81.33
72414;BME280;60995;52.154;4.498;2023-03-22T08:43:00;100430.56;;;10.86;81.33
72414;BME280;60995;52.154;4.498;2023-03-22T08:45:17;100431.78;;;11.01;80.83
72414;BME280;60995;52.154;4.498;2023-03-22T08:47:33;100443.16;;;10.87;80.86
72414;BME280;60995;52.154;4.498;2023-03-22T08:49:49;100440.75;;;10.84;81.65
72414;BME280;60995;52.154;4.498;2023-03-22T08:52:05;100438.47;;;10.79;81.77
72414;BME280;60995;52.154;4.498;2023-03-22T08:54:23;100432.19;;;10.79;82.06
72414;BME280;60995;52.154;4.498;2023-03-22T08:56:42;100431.84;;;10.91;81.42
72414;BME280;60995;52.154;4.498;2023-03-22T08:58:59;100420.94;;;10.73;81.48
72414;BME280;60995;52.154;4.498;2023-03-22T09:01:16;100431.88;;;10.82;81.88
72414;BME280;60995;52.154;4.498;2023-03-22T09:03:32;100430.78;;;10.74;82.21
72414;BME280;60995;52.154;4.498;2023-03-22T09:05:49;100437.09;;;10.65;82.75
72414;BME280;60995;52.154;4.498;2023-03-22T09:08:05;100430.22;;;10.71;82.69
72414;BME280;60995;52.154;4.498;2023-03-22T09:10:22;100430.78;;;11.02;81.96
72414;BME280;60995;52.154;4.498;2023-03-22T09:12:39;100439.63;;;10.76;82.52
72414;BME280;60995;52.154;4.498;2023-03-22T09:14:55;100428.97;;;10.93;81.95
72414;BME280;60995;52.154;4.498;2023-03-22T09:17:12;100443.56;;;10.92;81.90
72414;BME280;60995;52.154;4.498;2023-03-22T09:19:28;100445.44;;;10.91;81.67
72414;BME280;60995;52.154;4.498;2023-03-22T09:21:44;100446.28;;;10.92;82.54
72414;BME280;60995;52.154;4.498;2023-03-22T09:24:01;100447.88;;;10.85;82.70
72414;BME280;60995;52.154;4.498;2023-03-22T09:26:17;100440.97;;;11.00;82.21
72414;BME280;60995;52.154;4.498;2023-03-22T09:28:34;100432.78;;;10.72;83.00
72414;BME280;60995;52.154;4.498;2023-03-22T09:30:51;100428.25;;;10.63;83.51
72414;BME280;60995;52.154;4.498;2023-03-22T09:33:07;100439.00;;;10.92;83.97
72414;BME280;60995;52.154;4.498;2023-03-22T09:35:23;100429.72;;;10.85;83.96
72414;BME280;60995;52.154;4.498;2023-03-22T09:37:40;100423.31;;;10.86;83.53
72414;BME280;60995;52.154;4.498;2023-03-22T09:39:56;100436.22;;;10.74;83.79
72414;BME280;60995;52.154;4.498;2023-03-22T09:45:01;100430.47;;;11.05;84.08
72414;BME280;60995;52.154;4.498;2023-03-22T09:47:28;100432.91;;;11.08;84.27
72414;BME280;60995;52.154;4.498;2023-03-22T09:49:52;100429.69;;;10.95;83.19
72414;BME280;60995;52.154;4.498;2023-03-22T09:52:17;100445.28;;;10.93;83.72
72414;BME280;60995;52.154;4.498;2023-03-22T09:54:36;100434.81;;;10.98;83.29
72414;BME280;60995;52.154;4.498;2023-03-22T09:57:03;100447.25;;;10.91;83.20
72414;BME280;60995;52.154;4.498;2023-03-22T10:02:23;100433.00;;;10.89;83.31
72414;BME280;60995;52.154;4.498;2023-03-22T10:07:50;100446.84;;;10.96;83.18
72414;BME280;60995;52.154;4.498;2023-03-22T10:10:28;100451.25;;;10.97;83.26
72414;BME280;60995;52.154;4.498;2023-03-22T10:15:37;100439.75;;;11.13;83.45
72414;BME280;60995;52.154;4.498;2023-03-22T10:18:01;100445.09;;;11.04;83.53
72414;BME280;60995;52.154;4.498;2023-03-22T10:20:47;100416.31;;;11.12;82.87
72414;BME280;60995;52.154;4.498;2023-03-22T10:23:19;100423.25;;;11.24;83.15
72414;BME280;60995;52.154;4.498;2023-03-22T10:25:41;100419.91;;;11.30;83.55
72414;BME280;60995;52.154;4.498;2023-03-22T10:27:58;100406.34;;;11.48;82.65
72414;BME280;60995;52.154;4.498;2023-03-22T10:30:24;100406.50;;;11.47;82.41
72414;BME280;60995;52.154;4.498;2023-03-22T10:32:47;100402.06;;;11.46;82.24
72414;BME280;60995;52.154;4.498;2023-03-22T10:35:14;100412.03;;;11.55;83.04
72414;BME280;60995;52.154;4.498;2023-03-22T10:37:33;100411.25;;;11.45;82.55
72414;BME280;60995;52.154;4.498;2023-03-22T10:39:54;100409.16;;;11.38;82.12
72414;BME280;60995;52.154;4.498;2023-03-22T10:42:18;100404.59;;;11.57;82.31
72414;BME280;60995;52.154;4.498;2023-03-22T10:44:49;100418.22;;;11.65;82.48
72414;BME280;60995;52.154;4.498;2023-03-22T10:47:10;100413.56;;;11.57;82.51
72414;BME280;60995;52.154;4.498;2023-03-22T10:49:52;100409.00;;;11.58;81.59
72414;BME280;60995;52.154;4.498;2023-03-22T10:54:52;100395.81;;;11.81;81.43
72414;BME280;60995;52.154;4.498;2023-03-22T10:57:10;100381.44;;;11.89;80.60
72414;BME280;60995;52.154;4.498;2023-03-22T10:59:50;100393.91;;;12.18;79.04
72414;BME280;60995;52.154;4.498;2023-03-22T11:02:28;100393.91;;;12.18;78.18
72414;BME280;60995;52.154;4.498;2023-03-22T11:04:50;100405.59;;;12.36;79.03
72414;BME280;60995;52.154;4.498;2023-03-22T11:07:24;100408.16;;;12.38;77.69
72414;BME280;60995;52.154;4.498;2023-03-22T11:09:46;100434.53;;;12.37;77.50
72414;BME280;60995;52.154;4.498;2023-03-22T11:12:02;100425.84;;;12.42;77.62
72414;BME280;60995;52.154;4.498;2023-03-22T11:14:32;100439.38;;;12.07;78.83
72414;BME280;60995;52.154;4.498;2023-03-22T11:16:55;100437.50;;;11.90;79.28
72414;BME280;60995;52.154;4.498;2023-03-22T11:19:40;100453.06;;;11.98;78.79
72414;BME280;60995;52.154;4.498;2023-03-22T11:21:58;100451.50;;;12.13;78.78
72414;BME280;60995;52.154;4.498;2023-03-22T11:24:17;100454.78;;;11.99;78.83
72414;BME280;60995;52.154;4.498;2023-03-22T11:26:36;100451.56;;;11.67;78.91
72414;BME280;60995;52.154;4.498;2023-03-22T11:29:20;100461.19;;;11.80;78.65
72414;BME280;60995;52.154;4.498;2023-03-22T11:31:53;100454.84;;;11.89;78.56
72414;BME280;60995;52.154;4.498;2023-03-22T11:34:16;100457.16;;;11.84;78.96
72414;BME280;60995;52.154;4.498;2023-03-22T11:36:42;100456.50;;;12.00;78.49
72414;BME280;60995;52.154;4.498;2023-03-22T11:39:02;100455.16;;;12.04;78.67
72414;BME280;60995;52.154;4.498;2023-03-22T11:41:27;100461.22;;;11.98;78.56
72414;BME280;60995;52.154;4.498;2023-03-22T11:43:46;100437.75;;;11.97;78.82
72414;BME280;60995;52.154;4.498;2023-03-22T11:46:09;100446.69;;;11.89;78.99
72414;BME280;60995;52.154;4.498;2023-03-22T11:48:29;100447.16;;;12.02;78.54
72414;BME280;60995;52.154;4.498;2023-03-22T11:50:47;100448.56;;;12.06;78.58
72414;BME280;60995;52.154;4.498;2023-03-22T11:53:12;100445.00;;;12.06;78.34
72414;BME280;60995;52.154;4.498;2023-03-22T11:55:34;100457.56;;;12.07;78.36
72414;BME280;60995;52.154;4.498;2023-03-22T11:57:54;100453.84;;;12.08;78.61
72414;BME280;60995;52.154;4.498;2023-03-22T12:00:15;100453.00;;;12.07;78.61
72414;BME280;60995;52.154;4.498;2023-03-22T12:02:45;100451.34;;;12.15;78.80
72414;BME280;60995;52.154;4.498;2023-03-22T12:05:28;100448.22;;;12.10;78.81
72414;BME280;60995;52.154;4.498;2023-03-22T12:07:51;100444.50;;;12.11;78.44
72414;BME280;60995;52.154;4.498;2023-03-22T12:10:41;100450.88;;;12.01;78.93
72414;BME280;60995;52.154;4.498;2023-03-22T12:13:03;100438.78;;;12.14;78.58
72414;BME280;60995;52.154;4.498;2023-03-22T12:15:33;100430.97;;;12.19;78.33
72414;BME280;60995;52.154;4.498;2023-03-22T12:18:15;100432.75;;;12.28;78.44
72414;BME280;60995;52.154;4.498;2023-03-22T12:23:12;100428.69;;;12.32;77.62
72414;BME280;60995;52.154;4.498;2023-03-22T12:25:34;100427.75;;;12.41;77.47
72414;BME280;60995;52.154;4.498;2023-03-22T12:27:58;100435.56;;;12.45;77.02
72414;BME280;60995;52.154;4.498;2023-03-22T12:30:27;100425.75;;;12.26;77.24
72414;BME280;60995;52.154;4.498;2023-03-22T12:32:52;100409.75;;;12.49;76.82
72414;BME280;60995;52.154;4.498;2023-03-22T12:35:28;100422.06;;;12.61;76.50
72414;BME280;60995;52.154;4.498;2023-03-22T12:37:51;100414.31;;;12.74;76.04
72414;BME280;60995;52.154;4.498;2023-03-22T12:43:03;100412.53;;;12.57;76.30
72414;BME280;60995;52.154;4.498;2023-03-22T12:45:24;100421.06;;;12.62;76.57
72414;BME280;60995;52.154;4.498;2023-03-22T12:47:51;100419.09;;;12.72;76.01
72414;BME280;60995;52.154;4.498;2023-03-22T12:50:19;100424.81;;;12.61;76.55
72414;BME280;60995;52.154;4.498;2023-03-22T12:52:45;100433.13;;;12.33;77.43
72414;BME280;60995;52.154;4.498;2023-03-22T12:55:03;100424.16;;;12.41;77.18
72414;BME280;60995;52.154;4.498;2023-03-22T12:57:21;100426.41;;;12.46;76.90
72414;BME280;60995;52.154;4.498;2023-03-22T12:59:41;100434.59;;;12.54;76.44
72414;BME280;60995;52.154;4.498;2023-03-22T13:02:19;100431.16;;;12.70;76.22
72414;BME280;60995;52.154;4.498;2023-03-22T13:04:57;100425.22;;;12.48;76.82
72414;BME280;60995;52.154;4.498;2023-03-22T13:07:31;100434.19;;;12.67;76.68
72414;BME280;60995;52.154;4.498;2023-03-22T13:09:53;100428.88;;;12.57;76.78
72414;BME280;60995;52.154;4.498;2023-03-22T13:17:09;100430.09;;;12.97;75.61